Time;durP1;ratioP1;P1;durP2;ratioP2;P2;SDS_P1;SDS_P2;PMS_P1;PMS_P2;Temp;Humidity;BMP_temperature;BMP_pressure;BME280_temperature;BME280_humidity;BME280_pressure;Samples;Min_cycle;Max_cycle;Signal;HPM_P1;HPM_P2
2022/07/23 00:00:10;;;;;;;6.72;5.63;;;;;;;19.85;61.12;97182.66;5043524;28;20061;-64
2022/07/23 00:02:37;;;;;;;10.48;5.10;;;;;;;19.83;60.46;97187.91;5027971;28;20053;-57
2022/07/23 00:05:04;;;;;;;6.15;4.82;;;;;;;19.80;60.19;97188.78;5023942;28;20057;-64
2022/07/23 00:07:30;;;;;;;9.00;5.18;;;;;;;19.75;60.13;97187.25;5025988;28;20053;-57
2022/07/23 00:09:57;;;;;;;6.55;4.63;;;;;;;19.69;60.26;97183.34;5027431;28;20054;-57
2022/07/23 00:12:24;;;;;;;7.38;4.70;;;;;;;19.41;60.51;97136.81;5027612;28;20061;-65
2022/07/23 00:14:51;;;;;;;7.22;4.85;;;;;;;19.71;60.38;97180.09;5027445;28;20400;-64
2022/07/23 00:17:18;;;;;;;5.05;4.35;;;;;;;19.71;60.73;97177.28;5027357;28;20065;-57
2022/07/23 00:19:45;;;;;;;8.65;5.00;;;;;;;19.68;60.54;97178.13;5027266;28;20428;-62
2022/07/23 00:22:11;;;;;;;8.48;5.38;;;;;;;19.51;61.11;97175.19;5026932;28;20524;-62
2022/07/23 00:24:38;;;;;;;7.97;5.15;;;;;;;19.44;61.39;97178.09;5027008;28;20493;-56
2022/07/23 00:27:05;;;;;;;7.18;5.22;;;;;;;19.42;61.54;97176.94;5025993;28;20045;-64
2022/07/23 00:29:31;;;;;;;5.18;4.68;;;;;;;19.41;61.67;97167.72;5025649;28;20536;-56
2022/07/23 00:31:58;;;;;;;8.40;4.97;;;;;;;19.42;61.83;97169.31;5027068;28;20045;-57
2022/07/23 00:34:25;;;;;;;5.82;4.50;;;;;;;19.02;62.21;97136.59;5027044;28;20054;-65
2022/07/23 00:36:53;;;;;;;8.93;5.00;;;;;;;19.32;62.29;97161.03;5027303;28;20053;-64
2022/07/23 00:39:22;;;;;;;7.55;5.45;;;;;;;19.29;62.10;97175.94;5027294;28;20500;-56
2022/07/23 00:41:49;;;;;;;15.02;6.07;;;;;;;19.22;62.57;97170.41;5025646;28;20064;-64
2022/07/23 00:44:17;;;;;;;8.65;5.55;;;;;;;19.17;62.72;97168.06;5026997;28;20045;-59
2022/07/23 00:46:55;;;;;;;9.38;5.63;;;;;;;19.00;65.39;97169.91;5026367;28;20049;-64
2022/07/23 00:49:28;;;;;;;10.68;6.15;;;;;;;18.79;66.67;97158.97;5027007;28;20064;-58
2022/07/23 00:51:56;;;;;;;6.68;5.82;;;;;;;18.61;68.53;97151.97;5026831;28;20057;-58
2022/07/23 00:54:25;;;;;;;9.15;5.90;;;;;;;18.39;67.22;97133.81;5026625;28;20053;-64
2022/07/23 00:56:52;;;;;;;7.30;5.45;;;;;;;18.29;67.19;97126.31;5025305;28;20049;-64
2022/07/23 00:59:19;;;;;;;7.00;4.82;;;;;;;18.55;66.76;97165.69;5026181;28;20057;-64
2022/07/23 01:01:48;;;;;;;5.75;5.03;;;;;;;18.29;67.08;97124.28;5034747;28;20091;-59
2022/07/23 01:04:16;;;;;;;6.93;5.10;;;;;;;18.63;66.78;97147.56;5046555;28;20075;-59
2022/07/23 01:06:44;;;;;;;5.70;5.03;;;;;;;18.83;66.31;97172.94;5046232;28;20048;-56
2022/07/23 01:09:12;;;;;;;7.20;5.45;;;;;;;18.88;65.25;97162.06;5046581;28;20057;-56
2022/07/23 01:11:38;;;;;;;6.43;5.68;;;;;;;18.11;65.42;97028.38;5046111;28;20057;-57
2022/07/23 01:14:13;;;;;;;8.55;5.22;;;;;;;18.82;64.72;97135.66;5044796;28;20056;-65
2022/07/23 01:16:41;;;;;;;6.85;5.05;;;;;;;18.91;64.22;97158.41;5044486;28;20049;-64
2022/07/23 01:19:09;;;;;;;6.03;5.15;;;;;;;18.91;64.23;97158.41;5046527;28;20056;-57
2022/07/23 01:21:39;;;;;;;5.78;4.63;;;;;;;18.86;64.31;97164.47;5046482;28;20514;-64
2022/07/23 01:24:07;;;;;;;6.40;4.85;;;;;;;18.83;64.79;97159.72;5046303;28;20491;-57
2022/07/23 01:26:34;;;;;;;8.02;4.88;;;;;;;18.92;64.25;97162.78;5045932;28;20122;-64
2022/07/23 01:29:01;;;;;;;5.57;4.93;;;;;;;18.90;64.18;97148.41;5046139;28;20487;-57
2022/07/23 01:31:28;;;;;;;5.53;4.53;;;;;;;18.82;64.74;97148.91;5046131;28;20057;-59
2022/07/23 01:33:57;;;;;;;8.95;5.30;;;;;;;18.70;64.82;97144.63;5045741;28;20435;-64
2022/07/23 01:36:26;;;;;;;9.05;5.38;;;;;;;18.83;64.17;97159.72;5046202;28;20060;-65
2022/07/23 01:38:53;;;;;;;7.82;5.63;;;;;;;18.66;64.41;97131.88;5044394;28;20064;-64
2022/07/23 01:41:20;;;;;;;6.93;5.00;;;;;;;18.67;65.14;97145.47;5045381;28;20594;-57
2022/07/23 01:43:46;;;;;;;6.07;4.75;;;;;;;18.48;65.27;97118.06;5045453;28;20053;-64
2022/07/23 01:46:14;;;;;;;7.65;4.95;;;;;;;18.64;65.59;97151.94;5045448;28;20503;-65
2022/07/23 01:48:42;;;;;;;6.65;5.53;;;;;;;18.64;65.51;97146.31;5045604;28;20443;-70
2022/07/23 01:51:09;;;;;;;8.45;5.45;;;;;;;18.46;66.73;97150.56;5045823;28;20067;-65
2022/07/23 01:53:36;;;;;;;7.95;5.50;;;;;;;18.41;66.07;97126.59;5044048;28;20056;-64
2022/07/23 01:56:03;;;;;;;5.55;5.05;;;;;;;18.20;66.02;97097.97;5043819;28;20057;-64
2022/07/23 01:58:30;;;;;;;7.45;5.15;;;;;;;18.24;65.81;97104.34;5045358;28;20271;-64
2022/07/23 02:00:57;;;;;;;6.70;4.93;;;;;;;18.63;65.57;97141.13;5044076;28;20064;-64
2022/07/23 02:03:24;;;;;;;7.47;5.25;;;;;;;18.53;65.82;97134.44;5023978;28;20059;-56
2022/07/23 02:05:51;;;;;;;9.27;5.38;;;;;;;18.58;65.58;97142.41;5025518;28;20049;-64
2022/07/23 02:08:18;;;;;;;6.15;5.00;;;;;;;18.43;66.01;97137.41;5025587;28;20080;-64
2022/07/23 02:10:45;;;;;;;9.35;5.07;;;;;;;18.32;66.19;97117.84;5025257;28;20060;-65
2022/07/23 02:13:12;;;;;;;11.10;4.28;;;;;;;18.42;66.23;97133.78;5024911;28;20053;-59
2022/07/23 02:15:46;;;;;;;7.07;5.00;;;;;;;17.89;66.03;97050.25;5025556;28;20061;-59
2022/07/23 02:18:13;;;;;;;5.10;4.60;;;;;;;18.19;66.60;97119.63;5025259;28;20053;-56
2022/07/23 02:20:40;;;;;;;6.50;5.10;;;;;;;18.31;66.72;97138.69;5025040;28;20052;-64
2022/07/23 02:23:07;;;;;;;8.68;5.10;;;;;;;18.00;66.62;97078.19;5024950;28;20053;-57
2022/07/23 02:25:34;;;;;;;11.32;5.18;;;;;;;18.35;66.49;97133.84;5023278;28;20045;-56
2022/07/23 02:28:01;;;;;;;5.68;4.50;;;;;;;18.38;66.59;97135.84;5024422;28;20535;-64
2022/07/23 02:30:28;;;;;;;5.53;4.93;;;;;;;18.26;66.95;97119.53;5024622;28;20057;-56
2022/07/23 02:32:54;;;;;;;9.23;5.72;;;;;;;18.24;68.80;97143.59;5024777;28;20057;-57
2022/07/23 02:35:21;;;;;;;5.93;4.93;;;;;;;18.01;69.22;97127.41;5023173;28;20058;-58
2022/07/23 02:37:48;;;;;;;6.88;5.40;;;;;;;18.13;68.96;97138.09;5024674;28;20053;-56
2022/07/23 02:40:17;;;;;;;8.52;5.85;;;;;;;18.17;68.23;97144.47;5024322;28;20136;-56
2022/07/23 02:42:43;;;;;;;5.97;5.28;;;;;;;18.25;68.38;97134.75;5024740;28;20049;-58
2022/07/23 02:45:10;;;;;;;7.72;5.30;;;;;;;18.18;68.85;97136.88;5024609;28;20432;-56
2022/07/23 02:47:37;;;;;;;8.32;5.32;;;;;;;18.22;67.96;97144.03;5024356;28;20513;-57
2022/07/23 02:50:05;;;;;;;9.68;5.15;;;;;;;18.22;67.76;97141.22;5024414;28;20523;-56
2022/07/23 02:52:32;;;;;;;5.53;4.95;;;;;;;18.15;67.95;97141.28;5024594;28;20045;-64
2022/07/23 02:54:58;;;;;;;8.35;5.20;;;;;;;18.06;67.88;97126.97;5024407;28;20065;-56
2022/07/23 02:57:25;;;;;;;6.47;4.82;;;;;;;18.15;67.85;97143.31;5024512;28;20081;-57
2022/07/23 02:59:52;;;;;;;6.32;4.93;;;;;;;18.13;67.98;97138.09;5024291;28;20058;-63
2022/07/23 03:02:19;;;;;;;5.45;4.53;;;;;;;17.87;67.81;97091.13;5036558;28;20065;-64
2022/07/23 03:04:45;;;;;;;6.18;4.82;;;;;;;18.18;67.59;97146.06;5044172;28;20386;-58
2022/07/23 03:07:12;;;;;;;5.90;5.28;;;;;;;18.14;67.82;97142.50;5044260;28;20053;-64
2022/07/23 03:09:39;;;;;;;7.30;5.05;;;;;;;18.08;67.99;97146.97;5042991;28;20056;-56
2022/07/23 03:12:06;;;;;;;6.63;5.20;;;;;;;18.05;67.57;97136.59;5043163;28;20146;-64
2022/07/23 03:14:39;;;;;;;9.70;5.45;;;;;;;18.21;67.59;97161.25;5042918;28;20076;-58
2022/07/23 03:17:06;;;;;;;9.90;5.85;;;;;;;18.11;67.89;97146.16;5044240;28;20413;-64
2022/07/23 03:19:33;;;;;;;6.82;5.15;;;;;;;18.10;68.03;97158.56;5044098;28;20052;-59
2022/07/23 03:22:00;;;;;;;8.52;5.13;;;;;;;17.90;68.75;97163.97;5043944;28;20052;-64
2022/07/23 03:27:12;;;;;;;11.93;5.90;;;;;;;18.06;68.15;97166.22;5044123;28;20080;-56
2022/07/23 03:29:39;;;;;;;5.82;5.25;;;;;;;18.16;67.73;97168.13;5044120;28;20049;-63
2022/07/23 03:32:06;;;;;;;6.63;5.55;;;;;;;18.28;67.55;97161.97;5044033;28;20048;-57
2022/07/23 03:34:32;;;;;;;10.75;5.82;;;;;;;17.88;67.31;97092.72;5043741;28;20057;-63
2022/07/23 03:36:59;;;;;;;9.40;6.38;;;;;;;18.13;66.64;97119.25;5044276;28;20534;-56
2022/07/23 03:39:28;;;;;;;7.40;6.30;;;;;;;18.47;66.16;97147.34;5042913;28;20053;-58
2022/07/23 03:41:55;;;;;;;8.50;5.82;;;;;;;18.29;65.95;97121.47;5045342;28;20064;-58
2022/07/23 03:44:22;;;;;;;8.15;5.20;;;;;;;18.57;66.08;97157.66;5047768;28;20045;-58
2022/07/23 03:46:49;;;;;;;6.05;5.03;;;;;;;18.77;65.34;97160.59;5047921;28;20057;-64
2022/07/23 03:49:16;;;;;;;6.95;5.22;;;;;;;18.93;64.59;97170.00;5047788;28;20056;-64
2022/07/23 03:51:43;;;;;;;8.32;5.57;;;;;;;18.84;64.99;97161.28;5046019;28;20534;-58
2022/07/23 03:54:09;;;;;;;7.32;5.03;;;;;;;18.66;65.36;97132.69;5046367;28;20052;-56
2022/07/23 03:56:36;;;;;;;8.60;5.60;;;;;;;19.11;64.37;97159.31;5047761;28;20052;-64
2022/07/23 03:59:03;;;;;;;7.78;5.43;;;;;;;19.21;63.82;97168.78;5047999;28;20154;-64
2022/07/23 04:01:31;;;;;;;7.65;5.05;;;;;;;19.21;63.90;97149.94;5041710;28;20053;-57
2022/07/23 04:03:58;;;;;;;6.63;5.35;;;;;;;19.19;63.47;97131.94;5027507;28;20436;-56
2022/07/23 04:06:24;;;;;;;8.77;5.32;;;;;;;19.38;63.96;97162.94;5027574;28;20060;-57
2022/07/23 04:08:51;;;;;;;9.02;4.95;;;;;;;19.51;63.15;97166.75;5027142;28;20050;-56
2022/07/23 04:11:18;;;;;;;8.80;5.85;;;;;;;17.49;62.67;96818.66;5027476;28;20052;-56
2022/07/23 04:13:44;;;;;;;8.90;5.55;;;;;;;19.00;62.98;97088.47;5027365;28;20061;-58
2022/07/23 04:16:11;;;;;;;6.60;5.90;;;;;;;19.34;62.62;97114.47;5027288;28;20061;-65
2022/07/23 04:18:38;;;;;;;8.02;5.55;;;;;;;19.76;62.28;97154.31;5027400;28;20045;-65
2022/07/23 04:21:05;;;;;;;7.30;6.15;;;;;;;19.73;62.55;97152.34;5026642;28;20050;-64
2022/07/23 04:23:32;;;;;;;6.32;5.25;;;;;;;19.56;61.92;97131.75;5027161;28;20053;-65
2022/07/23 04:25:58;;;;;;;11.77;5.28;;;;;;;19.13;61.65;97033.31;5027221;28;20524;-58
2022/07/23 04:28:25;;;;;;;9.02;5.43;;;;;;;20.05;61.53;97149.75;5025741;28;20432;-59
2022/07/23 04:30:52;;;;;;;6.25;5.25;;;;;;;20.19;61.27;97149.53;5025180;28;20058;-58
2022/07/23 04:33:19;;;;;;;5.72;5.15;;;;;;;20.28;60.95;97146.94;5026701;28;20156;-58
2022/07/23 04:35:45;;;;;;;9.07;5.57;;;;;;;20.52;60.34;97151.28;5027154;28;20049;-60
2022/07/23 04:38:12;;;;;;;7.53;5.78;;;;;;;20.56;60.37;97152.00;5026761;28;20056;-65
2022/07/23 04:40:39;;;;;;;8.52;5.95;;;;;;;20.64;60.09;97147.81;5026519;28;20497;-64
2022/07/23 04:43:05;;;;;;;13.18;6.30;;;;;;;20.51;59.61;97110.28;5026552;28;20049;-64
2022/07/23 04:45:32;;;;;;;9.40;5.85;;;;;;;21.03;59.19;97147.81;5026673;28;20140;-58
2022/07/23 04:47:59;;;;;;;6.38;5.53;;;;;;;20.93;58.45;97098.09;5025777;28;20539;-58
2022/07/23 04:50:25;;;;;;;10.60;6.80;;;;;;;21.34;58.53;97151.91;5025809;28;20113;-64
2022/07/23 04:52:52;;;;;;;13.93;6.65;;;;;;;21.59;57.77;97146.47;5026131;28;20054;-66
2022/07/23 04:55:19;;;;;;;11.68;5.45;;;;;;;21.66;57.43;97145.50;5026539;28;20064;-58
2022/07/23 04:57:45;;;;;;;12.95;7.50;;;;;;;21.66;59.51;97146.28;5026537;28;20056;-59
2022/07/23 05:00:12;;;;;;;16.38;7.32;;;;;;;21.81;59.73;97147.56;5025994;28;20053;-65
2022/07/23 05:02:39;;;;;;;11.55;6.82;;;;;;;21.87;59.80;97145.78;5040610;28;20475;-65
2022/07/23 05:05:06;;;;;;;14.95;7.53;;;;;;;21.89;57.96;97111.50;5046380;28;20052;-58
2022/07/23 05:07:33;;;;;;;11.98;7.72;;;;;;;22.13;57.65;97143.91;5046382;28;20057;-59
2022/07/23 05:09:59;;;;;;;14.77;6.72;;;;;;;22.39;56.46;97146.41;5045149;28;20600;-65
2022/07/23 05:12:26;;;;;;;8.13;6.68;;;;;;;22.51;56.10;97144.06;5046439;28;20067;-58
2022/07/23 05:14:53;;;;;;;10.45;6.53;;;;;;;22.57;55.42;97126.16;5045857;28;20049;-65
2022/07/23 05:17:19;;;;;;;9.82;6.85;;;;;;;22.84;54.74;97140.69;5046063;28;20053;-64
2022/07/23 05:19:46;;;;;;;10.27;6.45;;;;;;;23.07;54.28;97142.44;5044649;28;20061;-65
2022/07/23 05:22:13;;;;;;;7.55;6.57;;;;;;;23.09;52.99;97100.38;5046393;28;20053;-58
2022/07/23 05:24:40;;;;;;;7.05;6.22;;;;;;;22.75;52.21;97035.25;5044696;28;20339;-58
2022/07/23 05:27:06;;;;;;;13.63;8.27;;;;;;;23.66;51.99;97131.28;5045901;28;20500;-57
2022/07/23 05:29:34;;;;;;;15.55;6.85;;;;;;;23.82;52.02;97131.16;5044597;28;20974;-64
2022/07/23 05:32:01;;;;;;;14.38;8.27;;;;;;;23.84;51.00;97089.00;5044604;28;20053;-58
2022/07/23 05:34:28;;;;;;;10.02;7.22;;;;;;;24.37;50.94;97129.66;5045851;28;20056;-65
2022/07/23 05:36:54;;;;;;;7.28;6.57;;;;;;;24.57;50.27;97107.44;5045787;28;20053;-57
2022/07/23 05:39:21;;;;;;;7.55;6.25;;;;;;;24.62;49.24;97081.38;5045614;28;20052;-56
2022/07/23 05:41:48;;;;;;;7.75;6.47;;;;;;;25.06;48.69;97123.41;5046118;28;20534;-62
2022/07/23 05:44:15;;;;;;;7.05;6.40;;;;;;;25.30;47.89;97127.31;5045786;28;20063;-62
2022/07/23 05:46:41;;;;;;;13.43;5.90;;;;;;;25.42;47.20;97105.03;5045030;28;20108;-59
2022/07/23 05:49:08;;;;;;;17.90;9.55;;;;;;;25.22;46.69;97040.94;5045322;28;20049;-64
2022/07/23 05:51:35;;;;;;;7.10;5.95;;;;;;;25.91;44.73;97120.00;5045331;28;20053;-65
2022/07/23 05:54:02;;;;;;;6.95;5.85;;;;;;;25.73;44.00;97074.53;5045213;28;20053;-64
2022/07/23 05:56:29;;;;;;;10.00;6.55;;;;;;;26.18;46.08;97128.56;5045348;28;20064;-57
2022/07/23 05:58:56;;;;;;;10.80;6.97;;;;;;;26.03;45.97;97062.31;5044080;28;20064;-58
2022/07/23 06:01:24;;;;;;;9.60;6.53;;;;;;;26.71;45.24;97121.38;5037408;28;20057;-57
2022/07/23 06:03:50;;;;;;;8.38;7.55;;;;;;;26.92;44.55;97103.31;5017364;28;20060;-62
2022/07/23 06:06:17;;;;;;;10.95;7.07;;;;;;;27.22;44.05;97115.72;5023217;28;20497;-57
2022/07/23 06:08:44;;;;;;;8.75;7.45;;;;;;;27.21;43.66;97063.72;5023232;28;20049;-55
2022/07/23 06:11:11;;;;;;;14.30;8.20;;;;;;;27.65;42.96;97116.06;5024526;28;20409;-65
2022/07/23 06:13:37;;;;;;;12.82;7.53;;;;;;;27.84;42.51;97117.53;5024995;28;20049;-62
2022/07/23 06:16:04;;;;;;;9.55;7.47;;;;;;;27.37;43.89;97120.28;5024867;28;20054;-56
2022/07/23 06:18:31;;;;;;;12.13;8.73;;;;;;;27.66;42.74;97114.78;5022635;28;20046;-56
2022/07/23 06:20:58;;;;;;;8.40;7.55;;;;;;;27.51;42.50;97059.81;5022595;28;20045;-57
2022/07/23 06:23:26;;;;;;;9.65;7.57;;;;;;;28.12;42.18;97093.31;5021395;28;20069;-67
2022/07/23 06:25:53;;;;;;;8.63;7.82;;;;;;;28.43;41.78;97106.41;5022966;28;20049;-60
2022/07/23 06:28:19;;;;;;;11.93;7.55;;;;;;;28.50;41.52;97083.25;5025279;28;20479;-64
2022/07/23 06:30:46;;;;;;;11.70;8.45;;;;;;;28.53;41.03;97053.78;5019990;28;20061;-67
2022/07/23 06:33:13;;;;;;;8.88;7.65;;;;;;;28.91;41.06;97090.78;5022842;28;20064;-62
2022/07/23 06:35:40;;;;;;;9.88;7.63;;;;;;;29.03;39.97;97103.97;5020854;28;20555;-61
2022/07/23 06:38:07;;;;;;;12.63;8.25;;;;;;;29.18;39.88;97084.81;5022233;28;20064;-69
2022/07/23 06:40:34;;;;;;;8.25;7.57;;;;;;;29.24;39.94;97099.97;5024620;28;20053;-67
2022/07/23 06:43:00;;;;;;;10.02;8.20;;;;;;;29.18;40.33;97081.97;5022290;28;20049;-60
2022/07/23 06:45:27;;;;;;;8.45;7.75;;;;;;;29.44;39.91;97094.31;5023994;28;20041;-59
2022/07/23 06:47:54;;;;;;;15.05;7.57;;;;;;;29.53;40.00;97082.78;5024351;28;20068;-63
2022/07/23 06:50:21;;;;;;;9.35;8.45;;;;;;;29.68;39.98;97097.88;5018988;28;20056;-63
2022/07/23 06:52:47;;;;;;;8.30;7.70;;;;;;;29.67;39.57;97044.88;5023240;28;20060;-63
2022/07/23 06:55:14;;;;;;;10.40;8.60;;;;;;;29.81;39.19;97055.47;5022106;28;20059;-59
2022/07/23 06:57:41;;;;;;;8.30;7.65;;;;;;;30.26;38.45;97083.38;5024040;28;20523;-59
2022/07/23 07:00:09;;;;;;;10.38;7.97;;;;;;;30.32;38.35;97084.25;5020794;28;20060;-69
2022/07/23 07:02:35;;;;;;;12.02;7.88;;;;;;;30.46;37.97;97074.78;5022683;28;20175;-67
2022/07/23 07:05:03;;;;;;;8.77;7.95;;;;;;;29.04;37.72;96814.53;5023977;28;20085;-72
2022/07/23 07:07:33;;;;;;;8.18;7.57;;;;;;;31.00;37.74;97083.75;5022896;28;20144;-69
2022/07/23 07:09:59;;;;;;;9.35;8.60;;;;;;;31.02;36.70;97058.25;5023079;28;20413;-77
2022/07/23 07:12:26;;;;;;;12.15;10.10;;;;;;;31.25;37.25;97086.59;5020682;28;20077;-59
2022/07/23 07:14:53;;;;;;;10.05;8.68;;;;;;;31.25;37.11;97057.16;5021460;28;20053;-57
2022/07/23 07:17:20;;;;;;;10.63;8.63;;;;;;;31.76;36.31;97082.84;5025071;28;20042;-56
2022/07/23 07:19:47;;;;;;;10.55;9.60;;;;;;;31.72;36.43;97085.16;5024538;28;20072;-70
2022/07/23 07:22:13;;;;;;;10.70;8.63;;;;;;;31.14;36.50;96972.00;5024488;28;20527;-69
2022/07/23 07:24:40;;;;;;;10.82;8.25;;;;;;;31.67;36.10;97077.31;5027713;28;20072;-67
2022/07/23 07:27:07;;;;;;;8.60;7.90;;;;;;;31.16;36.43;97083.13;5026261;28;20057;-64
2022/07/23 07:29:33;;;;;;;11.45;8.90;;;;;;;31.44;36.73;97058.41;5025140;28;20053;-59
2022/07/23 07:32:00;;;;;;;8.45;7.85;;;;;;;31.92;35.97;97065.00;5025871;28;20517;-67
2022/07/23 07:34:27;;;;;;;10.02;8.13;;;;;;;32.28;34.88;97067.00;5023759;28;20429;-57
2022/07/23 07:36:53;;;;;;;11.00;7.78;;;;;;;32.43;34.54;97064.75;5026161;28;20049;-63
2022/07/23 07:39:20;;;;;;;8.57;7.75;;;;;;;32.67;34.30;97067.19;5026069;28;20045;-65
2022/07/23 07:41:47;;;;;;;9.95;8.63;;;;;;;32.68;33.70;97035.09;5027299;28;20128;-64
2022/07/23 07:44:14;;;;;;;9.13;8.27;;;;;;;32.86;32.86;97046.13;5026543;28;20369;-60
2022/07/23 07:46:40;;;;;;;10.38;9.32;;;;;;;33.11;34.10;97050.88;5027667;28;20060;-58
2022/07/23 07:49:08;;;;;;;10.02;8.68;;;;;;;33.27;32.24;97058.72;5026036;28;20041;-55
2022/07/23 07:51:41;;;;;;;11.00;8.88;;;;;;;33.42;31.99;97050.63;5025724;28;20057;-56
2022/07/23 07:54:11;;;;;;;8.07;7.40;;;;;;;33.67;29.59;97046.69;5022697;28;20042;-65
2022/07/23 07:56:39;;;;;;;8.70;7.57;;;;;;;33.69;29.83;97014.56;5018070;28;20336;-65
2022/07/23 07:59:06;;;;;;;10.40;8.10;;;;;;;34.08;29.37;97037.50;5023946;28;20053;-72
2022/07/23 08:01:33;;;;;;;9.43;8.38;;;;;;;33.90;29.19;96972.72;5025526;28;20103;-71
2022/07/23 08:04:00;;;;;;;11.45;8.95;;;;;;;34.18;27.47;97038.75;5023808;28;20440;-60
2022/07/23 08:06:27;;;;;;;10.80;9.65;;;;;;;34.32;28.51;97026.16;5026639;28;20061;-70
2022/07/23 08:08:54;;;;;;;9.15;8.35;;;;;;;34.58;27.60;97032.34;5024367;28;20075;-69
2022/07/23 08:11:20;;;;;;;9.95;8.68;;;;;;;34.15;27.50;96953.53;5019974;28;20487;-68
2022/07/23 08:13:48;;;;;;;10.23;9.15;;;;;;;34.87;27.31;97031.66;5025386;28;20060;-68
2022/07/23 08:16:14;;;;;;;9.95;8.15;;;;;;;34.89;27.41;97026.16;5024031;28;20053;-66
2022/07/23 08:18:41;;;;;;;8.77;7.82;;;;;;;34.62;26.64;97012.69;5024352;28;20056;-67
2022/07/23 08:21:08;;;;;;;9.77;8.85;;;;;;;34.73;27.46;97009.75;5022442;28;20653;-59
2022/07/23 08:23:35;;;;;;;8.65;8.00;;;;;;;34.70;27.06;96976.25;5023089;28;20046;-59
2022/07/23 08:26:02;;;;;;;10.23;9.35;;;;;;;35.09;26.66;96991.19;5023607;28;20148;-64
2022/07/23 08:28:29;;;;;;;9.70;8.70;;;;;;;35.19;26.16;96983.75;5023157;28;20092;-59
2022/07/23 08:30:55;;;;;;;10.80;8.32;;;;;;;34.94;26.27;96930.31;5024866;28;20534;-74
2022/07/23 08:33:22;;;;;;;9.15;8.20;;;;;;;35.50;26.15;97020.72;5025698;28;20520;-68
2022/07/23 08:35:59;;;;;;;9.43;8.50;;;;;;;35.56;26.00;97018.56;5025457;28;20140;-74
2022/07/23 08:38:26;;;;;;;11.10;9.57;;;;;;;35.47;26.08;97016.06;5020592;28;20053;-67
2022/07/23 08:40:57;;;;;;;8.98;8.15;;;;;;;34.73;26.33;96897.47;5024836;28;20060;-72
2022/07/23 08:43:28;;;;;;;9.52;8.73;;;;;;;35.40;25.81;97010.84;5020147;28;20524;-72
2022/07/23 08:45:56;;;;;;;8.77;7.97;;;;;;;35.57;25.62;97017.25;5023088;28;20758;-61
2022/07/23 08:48:34;;;;;;;12.40;9.70;;;;;;;35.25;25.89;97021.97;5023011;28;20057;-69
2022/07/23 08:51:03;;;;;;;11.55;9.30;;;;;;;34.96;26.47;97022.72;5023246;28;20080;-59
2022/07/23 08:53:32;;;;;;;8.30;7.50;;;;;;;34.75;26.38;96955.28;5026288;28;20057;-68
2022/07/23 08:56:02;;;;;;;9.30;8.43;;;;;;;35.07;26.26;96967.91;5026313;28;20064;-67
2022/07/23 08:58:29;;;;;;;9.70;8.80;;;;;;;35.72;25.87;97017.63;5026203;28;20512;-67
2022/07/23 09:00:57;;;;;;;10.95;9.82;;;;;;;35.93;25.37;97015.09;5024285;28;20061;-70
2022/07/23 09:03:39;;;;;;;11.52;9.07;;;;;;;36.21;25.21;97016.34;5026444;28;20053;-68
2022/07/23 09:06:06;;;;;;;9.68;8.75;;;;;;;36.30;24.71;97001.53;5026688;28;20041;-68
2022/07/23 09:08:44;;;;;;;10.27;8.73;;;;;;;36.48;24.96;97012.31;5024864;28;20057;-66
2022/07/23 09:11:16;;;;;;;9.52;8.63;;;;;;;36.57;25.01;96998.81;5026039;28;20076;-58
2022/07/23 09:13:47;;;;;;;10.95;8.63;;;;;;;36.75;24.49;96992.28;5024887;28;20108;-58
2022/07/23 09:16:19;;;;;;;10.15;8.82;;;;;;;36.91;24.24;97002.84;5025854;28;20144;-70
2022/07/23 09:18:58;;;;;;;12.70;9.25;;;;;;;36.98;23.26;97002.19;5025963;28;20156;-68
2022/07/23 09:21:28;;;;;;;9.88;9.07;;;;;;;36.72;23.10;96997.03;5026214;28;20062;-58
2022/07/23 09:24:01;;;;;;;10.48;9.43;;;;;;;36.52;23.38;96965.81;5025970;28;20144;-59
2022/07/23 09:26:31;;;;;;;11.68;9.50;;;;;;;36.62;24.30;97003.75;5025784;28;20246;-70
2022/07/23 09:29:14;;;;;;;9.85;9.07;;;;;;;36.53;24.31;96995.47;5024570;28;20061;-69
2022/07/23 09:31:42;;;;;;;11.18;9.43;;;;;;;36.65;24.34;96996.88;5023894;28;20053;-61
2022/07/23 09:34:17;;;;;;;10.82;9.63;;;;;;;36.93;24.38;96988.63;5025142;28;20050;-66
2022/07/23 09:36:44;;;;;;;11.20;9.25;;;;;;;37.18;23.94;96981.38;5024258;28;20504;-59
2022/07/23 09:39:12;;;;;;;9.45;8.57;;;;;;;37.45;23.51;96983.81;5025055;28;20102;-65
2022/07/23 09:41:44;;;;;;;9.05;8.18;;;;;;;36.46;23.93;96954.38;5024316;28;20045;-68
2022/07/23 09:44:16;;;;;;;10.73;9.68;;;;;;;36.13;24.75;97021.16;5025245;28;20061;-60
2022/07/23 09:46:46;;;;;;;8.55;7.80;;;;;;;35.04;25.37;96897.75;5025212;28;20467;-67
2022/07/23 09:49:19;;;;;;;10.35;9.38;;;;;;;35.95;24.96;96981.47;5025896;28;20056;-58
2022/07/23 09:51:53;;;;;;;9.88;8.90;;;;;;;36.30;24.58;96972.69;5024100;28;20538;-59
2022/07/23 09:54:34;;;;;;;10.32;9.40;;;;;;;36.76;24.82;96979.38;5025589;28;20050;-59
2022/07/23 09:57:06;;;;;;;10.18;9.18;;;;;;;36.34;22.89;96978.91;5025034;28;20049;-58
2022/07/23 09:59:36;;;;;;;10.40;9.20;;;;;;;36.23;23.00;96938.63;5023750;28;20057;-60
2022/07/23 10:02:05;;;;;;;10.45;9.40;;;;;;;36.49;23.05;96979.25;5025270;28;20115;-68
2022/07/23 10:04:32;;;;;;;10.05;8.77;;;;;;;36.15;22.79;96983.84;5041178;28;20560;-59
2022/07/23 10:07:01;;;;;;;10.95;8.70;;;;;;;36.32;23.64;96975.81;5045134;28;20045;-68
2022/07/23 10:09:29;;;;;;;11.55;9.05;;;;;;;36.64;23.00;96983.78;5043362;28;20064;-59
2022/07/23 10:12:12;;;;;;;11.13;9.05;;;;;;;36.70;22.95;96964.25;5044795;28;20045;-59
2022/07/23 10:14:40;;;;;;;10.77;9.00;;;;;;;36.78;23.10;96971.00;5044900;28;20057;-61
2022/07/23 10:17:08;;;;;;;13.57;10.07;;;;;;;36.70;22.57;96982.38;5044799;28;20053;-69
2022/07/23 10:19:35;;;;;;;16.98;11.02;;;;;;;36.77;22.93;96937.66;5043339;28;20110;-60
2022/07/23 10:22:25;;;;;;;10.25;8.45;;;;;;;36.89;23.28;96965.03;5044343;28;20258;-59
2022/07/23 10:25:10;;;;;;;11.18;9.95;;;;;;;36.84;23.48;96968.78;5044354;28;20067;-68
2022/07/23 10:28:03;;;;;;;12.45;10.95;;;;;;;37.04;21.89;96959.56;5043725;28;20110;-60
2022/07/23 10:30:55;;;;;;;10.68;9.60;;;;;;;37.22;22.57;96964.50;5044883;28;20079;-60
2022/07/23 10:33:31;;;;;;;10.15;9.20;;;;;;;36.97;21.43;96960.19;5031277;28;100083;-67
2022/07/23 10:36:16;;;;;;;15.23;9.70;;;;;;;37.05;21.70;96955.31;5016069;28;20441;-58
2022/07/23 10:38:52;;;;;;;9.63;8.48;;;;;;;36.33;21.68;96936.97;5005060;28;20073;-58
2022/07/23 10:41:51;;;;;;;15.35;8.88;;;;;;;36.62;21.97;96934.44;5003685;28;20868;-67
2022/07/23 10:44:23;;;;;;;13.15;9.60;;;;;;;36.73;21.91;96957.38;5003459;28;20049;-66
2022/07/23 10:49:40;;;;;;;12.45;9.05;;;;;;;36.66;21.81;96943.59;5004600;28;19929;-67
2022/07/23 10:52:13;;;;;;;13.93;9.13;;;;;;;37.06;21.94;96942.44;5003247;28;20050;-60
2022/07/23 10:54:45;;;;;;;12.90;9.43;;;;;;;37.10;20.88;96940.78;5005011;28;20515;-67
2022/07/23 10:57:13;;;;;;;13.97;9.17;;;;;;;37.03;21.55;96940.66;5003644;28;20064;-59
2022/07/23 11:00:14;;;;;;;9.93;8.88;;;;;;;37.12;21.77;96937.34;5004021;28;20119;-67
2022/07/23 11:02:43;;;;;;;12.73;9.30;;;;;;;37.21;21.55;96939.81;5002760;28;20509;-68
2022/07/23 11:05:13;;;;;;;10.40;9.40;;;;;;;37.34;21.33;96937.00;4984967;28;20057;-59
2022/07/23 11:08:04;;;;;;;9.50;8.57;;;;;;;37.30;21.04;96930.75;4985268;28;20065;-67
2022/07/23 11:10:39;;;;;;;10.70;9.10;;;;;;;37.26;21.67;96936.09;4983612;28;20441;-67
2022/07/23 11:13:21;;;;;;;14.05;8.82;;;;;;;37.43;20.31;96919.22;4985190;28;20061;-60
2022/07/23 11:16:08;;;;;;;16.15;9.43;;;;;;;37.40;20.32;96923.22;4984931;28;20058;-67
2022/07/23 11:18:43;;;;;;;10.43;8.52;;;;;;;37.46;20.71;96912.31;4984958;28;20108;-67
2022/07/23 11:24:09;;;;;;;19.40;9.77;;;;;;;37.62;20.46;96911.22;4984860;28;20067;-67
2022/07/23 11:26:53;;;;;;;10.57;9.10;;;;;;;37.63;20.43;96918.56;4983759;28;20058;-58
2022/07/23 11:29:30;;;;;;;15.93;9.80;;;;;;;37.76;20.49;96909.94;4983644;28;20161;-58
2022/07/23 11:31:59;;;;;;;11.88;9.60;;;;;;;37.44;21.61;96866.63;4984828;28;20050;-59
2022/07/23 11:34:38;;;;;;;12.57;9.02;;;;;;;37.54;20.82;96916.13;4985141;28;20050;-59
2022/07/23 11:37:09;;;;;;;12.70;9.82;;;;;;;37.13;20.75;96834.88;4984764;28;20061;-59
2022/07/23 11:39:38;;;;;;;13.77;9.63;;;;;;;37.61;20.84;96918.31;4985075;28;20069;-68
2022/07/23 11:42:07;;;;;;;12.45;9.88;;;;;;;37.80;20.60;96910.34;4984476;28;20050;-58
2022/07/23 11:44:36;;;;;;;14.70;9.43;;;;;;;37.95;20.79;96912.69;4983269;28;20109;-66